Time;durP1;ratioP1;P1;durP2;ratioP2;P2;SDS_P1;SDS_P2;PMS_P1;PMS_P2;Temp;Humidity;BMP_temperature;BMP_pressure;BME280_temperature;BME280_humidity;BME280_pressure;Samples;Min_cycle;Max_cycle;Signal;HPM_P1;HPM_P2
2023/10/23 07:31:43;;;;;;;23.90;10.60;;;;;;;6.84;79.76;98360.06;6121394;23;20006;-90
2023/10/23 07:34:09;;;;;;;22.92;11.13;;;;;;;7.21;79.85;98401.47;6142747;23;20021;-90
2023/10/23 07:36:37;;;;;;;27.95;10.38;;;;;;;7.11;79.93;98380.81;6146151;23;20029;-91
2023/10/23 07:39:03;;;;;;;23.88;9.93;;;;;;;6.75;79.84;98315.75;6119255;23;20014;-90
2023/10/23 07:41:30;;;;;;;25.13;10.70;;;;;;;7.27;79.95;98383.94;6147461;23;20017;-89
2023/10/23 07:43:56;;;;;;;21.92;9.57;;;;;;;6.81;79.95;98318.03;6129814;23;20078;-91
2023/10/23 07:46:25;;;;;;;26.13;10.50;;;;;;;7.05;80.43;98355.72;6152156;23;20028;-90
2023/10/23 07:48:53;;;;;;;25.13;11.27;;;;;;;7.03;80.26;98343.56;6122823;23;20554;-91
2023/10/23 07:51:25;;;;;;;26.15;9.70;;;;;;;7.05;79.92;98339.41;6124317;23;20005;-92
2023/10/23 07:53:54;;;;;;;24.05;9.68;;;;;;;7.35;80.29;98385.06;6171370;23;20096;-92
2023/10/23 07:56:20;;;;;;;19.90;9.75;;;;;;;7.44;79.99;98383.97;6120877;23;20017;-90
2023/10/23 07:58:48;;;;;;;19.90;9.23;;;;;;;7.51;79.47;98373.44;6096780;23;20072;-90
2023/10/23 08:01:14;;;;;;;25.05;9.57;;;;;;;7.54;79.25;98383.69;6097986;23;20025;-91
2023/10/23 08:03:44;;;;;;;23.05;10.10;;;;;;;7.51;79.50;98378.09;6167501;23;20021;-89
2023/10/23 08:06:11;;;;;;;19.80;9.70;;;;;;;7.55;80.05;98376.34;6131933;23;20008;-89
2023/10/23 08:08:41;;;;;;;16.05;8.40;;;;;;;7.61;79.92;98369.63;6125222;23;20021;-90
2023/10/23 08:11:10;;;;;;;17.25;8.80;;;;;;;7.63;79.99;98361.97;6120674;23;20048;-90
2023/10/23 08:13:40;;;;;;;17.80;8.75;;;;;;;7.31;80.25;98308.78;6118835;23;20014;-89
2023/10/23 08:16:07;;;;;;;27.52;10.13;;;;;;;7.62;80.31;98346.78;6141828;23;20040;-89
2023/10/23 08:18:34;;;;;;;22.27;9.45;;;;;;;7.30;79.72;98307.19;6115884;23;20467;-89
2023/10/23 08:21:10;;;;;;;22.73;9.20;;;;;;;7.24;80.00;98294.84;6141958;23;20025;-91
2023/10/23 08:23:36;;;;;;;21.45;8.88;;;;;;;7.42;80.84;98309.31;6142395;23;20045;-89
2023/10/23 08:26:03;;;;;;;25.45;10.73;;;;;;;7.53;80.45;98313.31;6093430;23;20021;-90
2023/10/23 08:28:29;;;;;;;20.95;9.98;;;;;;;7.39;79.68;98288.19;6120865;23;20017;-92
2023/10/23 08:30:57;;;;;;;24.17;10.68;;;;;;;7.61;79.86;98315.25;6138446;23;20029;-91
2023/10/23 08:33:23;;;;;;;31.92;9.70;;;;;;;7.45;79.53;98287.72;6116504;23;20439;-88
2023/10/23 08:35:51;;;;;;;28.02;11.20;;;;;;;7.71;79.89;98317.66;6169544;23;20022;-90
2023/10/23 08:38:18;;;;;;;33.47;10.07;;;;;;;7.64;80.00;98287.41;6171377;23;20008;-91
2023/10/23 08:40:51;;;;;;;25.38;9.68;;;;;;;7.42;79.40;98268.53;6149820;23;20009;-93
2023/10/23 08:43:46;;;;;;;28.90;9.18;;;;;;;7.95;79.99;98330.00;6170843;23;20029;-93
2023/10/23 08:46:15;;;;;;;26.40;11.07;;;;;;;7.32;80.11;98219.88;6160055;23;20115;-91
2023/10/23 08:48:44;;;;;;;23.58;10.43;;;;;;;7.96;80.15;98313.34;6158265;23;20350;-89
2023/10/23 08:51:16;;;;;;;21.13;10.43;;;;;;;8.03;79.83;98317.53;6163921;23;20024;-93
2023/10/23 08:54:21;;;;;;;29.75;10.10;;;;;;;7.16;79.32;98209.47;6185821;23;20047;-89
2023/10/23 08:57:15;;;;;;;24.58;9.88;;;;;;;7.69;79.73;98256.56;6236611;23;20032;-88
2023/10/23 08:59:42;;;;;;;22.90;9.23;;;;;;;7.99;79.65;98292.88;6230650;23;20056;-84
2023/10/23 09:02:12;;;;;;;18.83;10.13;;;;;;;7.96;79.75;98298.94;6226136;23;20016;-86
2023/10/23 09:04:38;;;;;;;24.92;9.95;;;;;;;7.80;79.74;98276.06;6229097;23;20020;-86
2023/10/23 09:07:04;;;;;;;19.08;10.02;;;;;;;7.60;79.85;98223.91;6224381;23;20044;-85
2023/10/23 09:09:30;;;;;;;20.17;9.35;;;;;;;7.81;79.95;98253.97;6224062;23;20016;-84
2023/10/23 09:11:57;;;;;;;16.73;9.95;;;;;;;8.08;80.30;98285.50;6226300;23;20024;-87
2023/10/23 09:14:25;;;;;;;20.77;10.13;;;;;;;8.15;80.38;98280.38;6203615;23;20027;-86
2023/10/23 09:16:55;;;;;;;22.58;10.07;;;;;;;8.17;80.34;98272.66;6228892;23;20013;-91
2023/10/23 09:19:38;;;;;;;17.13;9.00;;;;;;;8.13;80.55;98263.56;6230168;23;20078;-86
2023/10/23 09:22:06;;;;;;;19.83;9.88;;;;;;;8.24;80.29;98267.56;6201347;23;20024;-84
2023/10/23 09:24:34;;;;;;;17.55;10.18;;;;;;;8.26;79.98;98263.69;6221985;23;20020;-85
2023/10/23 09:27:03;;;;;;;21.75;12.07;;;;;;;8.27;79.97;98259.84;6222945;23;20454;-86
2023/10/23 09:29:29;;;;;;;23.55;12.18;;;;;;;7.95;79.80;98216.53;6226076;23;20016;-85
2023/10/23 09:31:58;;;;;;;26.90;12.90;;;;;;;8.31;79.82;98249.91;6229093;23;20024;-86
2023/10/23 09:34:25;;;;;;;34.45;14.80;;;;;;;8.30;79.93;98245.59;6224282;23;20016;-85
2023/10/23 09:36:52;;;;;;;37.60;17.38;;;;;;;8.20;79.92;98223.03;6226791;23;20032;-85
2023/10/23 09:39:19;;;;;;;35.50;16.23;;;;;;;8.19;80.13;98216.00;6226181;23;20024;-83
2023/10/23 09:41:46;;;;;;;30.15;14.75;;;;;;;8.20;80.04;98219.50;6147972;23;20068;-84
2023/10/23 09:44:13;;;;;;;24.33;14.80;;;;;;;8.24;80.22;98218.56;6223300;23;20388;-84
2023/10/23 09:46:42;;;;;;;27.48;15.38;;;;;;;8.05;80.02;98181.94;6226750;23;20019;-85
2023/10/23 09:49:10;;;;;;;31.20;15.73;;;;;;;8.51;81.23;98232.91;6185207;23;20092;-84
2023/10/23 09:51:41;;;;;;;35.22;16.02;;;;;;;8.48;79.34;98233.56;6228680;23;20028;-87
2023/10/23 09:54:33;;;;;;;30.65;15.18;;;;;;;8.45;79.56;98226.03;6181472;23;20000;-85
2023/10/23 09:57:07;;;;;;;36.50;16.75;;;;;;;8.11;79.64;98178.72;6231467;23;20060;-86
2023/10/23 09:59:43;;;;;;;30.08;15.80;;;;;;;8.59;80.55;98221.19;6205371;23;20107;-86
2023/10/23 10:02:13;;;;;;;28.02;15.18;;;;;;;8.53;79.64;98217.03;6226894;23;20016;-87
2023/10/23 10:05:06;;;;;;;36.00;17.55;;;;;;;8.61;79.49;98221.66;6232013;23;20015;-87
2023/10/23 10:07:39;;;;;;;33.05;15.40;;;;;;;8.47;79.45;98215.59;6170718;23;20016;-87
2023/10/23 10:10:07;;;;;;;31.67;15.48;;;;;;;8.31;79.60;98190.81;6224360;23;20023;-85
2023/10/23 10:12:37;;;;;;;36.95;16.63;;;;;;;8.44;79.58;98203.47;6229792;23;20013;-85
2023/10/23 10:15:30;;;;;;;31.27;15.27;;;;;;;8.53;79.76;98219.75;6225843;23;20019;-85
2023/10/23 10:17:59;;;;;;;39.70;16.98;;;;;;;8.43;79.81;98193.69;6082165;23;20085;-85
2023/10/23 10:20:26;;;;;;;47.33;16.27;;;;;;;8.39;79.66;98190.03;6106544;23;20456;-84
2023/10/23 10:23:16;;;;;;;36.58;15.80;;;;;;;8.50;79.45;98195.09;6087359;23;20484;-88
2023/10/23 10:25:46;;;;;;;41.67;16.30;;;;;;;8.25;80.20;98167.63;6087325;23;20018;-85
2023/10/23 10:28:13;;;;;;;32.33;15.10;;;;;;;8.46;80.13;98203.13;6085649;23;20025;-85
2023/10/23 10:30:49;;;;;;;33.97;16.38;;;;;;;8.50;80.20;98200.53;6084731;23;20062;-86
2023/10/23 10:33:24;;;;;;;35.83;15.25;;;;;;;8.54;79.96;98196.84;6102829;23;20015;-87
2023/10/23 10:36:11;;;;;;;46.03;16.90;;;;;;;8.46;79.74;98198.47;6105720;23;20018;-88
2023/10/23 10:38:43;;;;;;;36.78;16.67;;;;;;;8.50;80.09;98204.06;6059403;23;20022;-84
2023/10/23 10:41:19;;;;;;;35.30;15.27;;;;;;;8.35;80.00;98172.72;6107208;23;20019;-85
2023/10/23 10:43:52;;;;;;;33.72;17.52;;;;;;;8.29;79.87;98162.31;6091580;23;20014;-87
2023/10/23 10:46:21;;;;;;;35.97;15.73;;;;;;;8.27;80.08;98151.75;6083011;23;20500;-87
2023/10/23 10:48:50;;;;;;;39.47;18.20;;;;;;;8.33;79.90;98155.88;6104748;23;20049;-84
2023/10/23 10:51:20;;;;;;;38.50;16.77;;;;;;;8.40;80.03;98155.41;6104726;23;20018;-90
2023/10/23 10:53:54;;;;;;;38.33;16.13;;;;;;;8.11;80.18;98101.69;6116883;23;20074;-87
2023/10/23 10:56:22;;;;;;;33.30;16.20;;;;;;;8.39;79.99;98153.81;6225884;23;20506;-89
2023/10/23 10:58:48;;;;;;;32.33;15.93;;;;;;;7.97;80.20;98072.75;6227302;23;20027;-84
2023/10/23 11:01:29;;;;;;;34.20;16.27;;;;;;;8.21;80.49;98096.69;6229470;23;19997;-84
2023/10/23 11:03:58;;;;;;;28.23;14.70;;;;;;;8.66;80.72;98164.25;6228871;23;20044;-89
2023/10/23 11:06:25;;;;;;;28.30;14.43;;;;;;;8.46;80.86;98118.72;6228503;23;20017;-85
2023/10/23 11:08:54;;;;;;;31.98;15.48;;;;;;;8.76;80.53;98148.66;6201111;23;20017;-91
2023/10/23 11:11:25;;;;;;;28.90;13.60;;;;;;;8.76;79.96;98146.75;6224026;23;20025;-85
2023/10/23 11:13:52;;;;;;;25.80;13.55;;;;;;;8.73;79.99;98136.50;6228375;23;20042;-86
2023/10/23 11:16:18;;;;;;;;;;;;;;;8.83;79.58;98143.50;6232873;23;20011;-87
2023/10/23 11:18:43;;;;;;;29.67;14.83;;;;;;;8.75;79.21;98139.69;6201745;23;19915;-85
2023/10/23 11:21:10;;;;;;;32.78;15.55;;;;;;;8.39;79.50;98083.03;6231051;23;20021;-84
2023/10/23 11:23:36;;;;;;;33.92;16.25;;;;;;;8.54;79.39;98101.50;6228921;23;20020;-86
2023/10/23 11:26:05;;;;;;;26.70;14.20;;;;;;;8.29;79.44;98067.03;6226695;23;20020;-85
2023/10/23 11:28:31;;;;;;;36.45;15.23;;;;;;;8.46;79.37;98083.31;6225060;23;20088;-83
2023/10/23 11:31:01;;;;;;;31.23;15.13;;;;;;;8.70;80.06;98124.31;6200557;23;20036;-83
2023/10/23 11:33:52;;;;;;;43.60;15.73;;;;;;;8.51;79.97;98098.66;6225807;23;20021;-85
2023/10/23 11:36:20;;;;;;;46.55;16.35;;;;;;;8.58;79.93;98112.56;6228005;23;20069;-92
2023/10/23 11:38:46;;;;;;;40.25;15.82;;;;;;;8.70;79.92;98126.25;6225312;23;20024;-84
2023/10/23 11:41:14;;;;;;;38.78;18.33;;;;;;;8.44;79.99;98082.81;6219451;23;20024;-85
2023/10/23 11:43:40;;;;;;;37.15;17.85;;;;;;;8.64;80.07;98122.94;6196901;23;20071;-90
2023/10/23 11:46:07;;;;;;;37.55;17.15;;;;;;;8.28;80.01;98077.13;6225721;23;20405;-92
2023/10/23 11:48:33;;;;;;;45.63;19.40;;;;;;;8.57;80.17;98103.56;6223808;23;20063;-86
2023/10/23 11:50:59;;;;;;;50.50;20.10;;;;;;;8.67;79.97;98113.28;6206159;23;20020;-85
2023/10/23 11:53:26;;;;;;;53.25;21.25;;;;;;;8.36;80.42;98076.28;6202990;23;20017;-84
2023/10/23 11:55:52;;;;;;;46.10;20.45;;;;;;;8.27;80.13;98069.28;6228016;23;20024;-92
2023/10/23 11:58:29;;;;;;;50.88;22.92;;;;;;;8.35;79.72;98082.06;6204370;23;20016;-85
2023/10/23 12:00:57;;;;;;;65.95;24.63;;;;;;;8.38;80.20;98086.88;6234309;23;20020;-93
2023/10/23 12:03:29;;;;;;;60.83;22.13;;;;;;;8.35;79.90;98082.06;6233359;23;20064;-90
2023/10/23 12:06:05;;;;;;;73.22;27.48;;;;;;;8.51;79.48;98090.47;6238813;23;20086;-87
2023/10/23 12:08:51;;;;;;;50.38;20.55;;;;;;;8.17;79.51;98060.34;6263130;22;20031;-83
2023/10/23 12:11:18;;;;;;;57.40;19.10;;;;;;;8.08;79.86;98034.28;6259101;23;20051;-85
2023/10/23 12:13:44;;;;;;;59.33;22.52;;;;;;;8.06;79.84;98021.03;6251870;23;20479;-85
2023/10/23 12:16:11;;;;;;;49.47;18.63;;;;;;;8.34;79.83;98064.09;6231566;23;20042;-84
2023/10/23 12:18:37;;;;;;;62.43;21.50;;;;;;;8.48;80.37;98086.50;6255308;23;20397;-85
2023/10/23 12:21:06;;;;;;;66.50;20.27;;;;;;;8.21;80.17;98052.31;6225182;23;20022;-85
2023/10/23 12:23:33;;;;;;;69.30;22.02;;;;;;;8.00;80.25;98023.13;6232739;23;20031;-84
2023/10/23 12:26:00;;;;;;;;;;;;;;;8.34;80.70;98080.44;6253813;23;20393;-85
2023/10/23 12:28:27;;;;;;;;;;;;;;;8.35;80.82;98079.34;6250434;23;19915;-83
2023/10/23 12:30:54;;;;;;;57.97;20.70;;;;;;;8.08;81.37;98037.84;6248192;23;19916;-84
2023/10/23 12:33:21;;;;;;;55.67;20.95;;;;;;;8.31;81.54;98079.19;6227824;23;20015;-94
2023/10/23 12:35:47;;;;;;;55.03;20.23;;;;;;;8.00;81.67;98014.19;6233254;23;20023;-86
2023/10/23 12:38:13;;;;;;;50.93;20.97;;;;;;;8.42;81.88;98076.94;6255188;23;20023;-86
2023/10/23 12:40:48;;;;;;;48.63;19.52;;;;;;;8.09;81.24;98025.81;6256993;23;20016;-85
2023/10/23 12:43:15;;;;;;;50.20;17.95;;;;;;;8.24;81.52;98049.78;6153791;23;20509;-85
2023/10/23 12:45:42;;;;;;;39.50;16.57;;;;;;;8.10;81.58;98027.41;6204113;23;20022;-85
2023/10/23 12:48:10;;;;;;;39.50;16.63;;;;;;;8.25;81.83;98050.56;6226762;23;20418;-85
2023/10/23 12:50:38;;;;;;;36.00;16.38;;;;;;;8.13;81.37;98031.41;6254232;23;20031;-91
2023/10/23 12:53:04;;;;;;;44.10;19.92;;;;;;;8.11;80.74;98011.88;6231328;23;20063;-86
2023/10/23 12:55:32;;;;;;;61.67;21.38;;;;;;;8.34;80.64;98042.34;6229897;23;20035;-83
2023/10/23 12:57:58;;;;;;;51.92;19.85;;;;;;;8.43;79.85;98045.84;6204096;23;20016;-88
2023/10/23 13:00:25;;;;;;;62.25;22.13;;;;;;;8.51;79.50;98055.06;6259068;23;20102;-89
2023/10/23 13:02:51;;;;;;;47.35;18.85;;;;;;;8.61;79.55;98071.03;6231332;23;20023;-90
2023/10/23 13:05:17;;;;;;;39.75;15.65;;;;;;;8.41;79.67;98035.28;6238544;23;20011;-86
2023/10/23 13:07:43;;;;;;;37.60;16.80;;;;;;;8.49;79.47;98057.34;6236011;23;20067;-84
2023/10/23 13:10:10;;;;;;;44.28;17.38;;;;;;;8.26;79.26;98024.13;6260917;23;20509;-84
2023/10/23 13:12:37;;;;;;;40.95;15.30;;;;;;;8.39;80.00;98059.31;6261184;23;20016;-83
2023/10/23 13:15:06;;;;;;;40.83;14.35;;;;;;;8.39;80.10;98055.81;6260847;23;20084;-83
2023/10/23 13:17:36;;;;;;;34.50;14.50;;;;;;;8.24;80.51;98027.16;6233886;23;20039;-83
2023/10/23 13:20:10;;;;;;;38.67;16.23;;;;;;;8.47;80.87;98076.72;6238969;23;20007;-84
2023/10/23 13:22:39;;;;;;;32.70;14.25;;;;;;;8.36;81.70;98053.69;6268100;23;20016;-83
2023/10/23 13:25:14;;;;;;;32.80;13.65;;;;;;;8.41;81.76;98065.25;6194787;22;20004;-88
2023/10/23 13:28:00;;;;;;;33.10;14.13;;;;;;;7.92;82.09;98004.16;6193586;23;20004;-86
2023/10/23 13:31:39;;;;;;;29.40;14.73;;;;;;;7.96;82.61;98029.56;6216305;22;20030;-89
2023/10/23 13:34:25;;;;;;;30.20;16.00;;;;;;;7.60;83.06;97981.88;6148234;23;20082;-90
2023/10/23 13:37:39;;;;;;;46.13;19.67;;;;;;;7.86;83.88;98025.28;6128770;23;20094;-90
2023/10/23 13:40:14;;;;;;;39.33;17.48;;;;;;;7.40;84.13;97977.94;6097172;23;20033;-90
2023/10/23 13:42:42;;;;;;;37.83;17.98;;;;;;;7.73;84.12;98023.56;6120288;23;20087;-90
2023/10/23 13:45:08;;;;;;;47.72;19.55;;;;;;;7.59;84.17;98001.25;6060809;23;20436;-91
2023/10/23 13:50:18;;;;;;;34.80;15.30;;;;;;;7.32;84.79;97983.38;6053964;23;20007;-90
2023/10/23 13:55:51;;;;;;;32.00;14.65;;;;;;;7.56;85.42;98057.06;6235483;23;20028;-91
2023/10/23 13:58:26;;;;;;;27.67;14.10;;;;;;;7.09;85.80;97989.06;6161419;23;20040;-91
2023/10/23 14:01:33;;;;;;;30.60;14.40;;;;;;;7.09;85.89;97980.09;6195739;23;20063;-88
2023/10/23 14:07:46;;;;;;;26.20;13.45;;;;;;;7.10;86.20;97978.97;6239270;23;20028;-91
2023/10/23 14:10:39;;;;;;;25.65;13.65;;;;;;;7.28;86.10;98002.25;6188280;23;21936;-93
2023/10/23 14:25:19;;;;;;;31.27;13.35;;;;;;;6.68;86.30;97948.81;6237818;23;20033;-95
2023/10/23 14:53:06;;;;;;;16.25;9.52;;;;;;;6.69;87.34;97983.81;6227623;23;20038;-95
2023/10/23 14:55:46;;;;;;;18.73;10.88;;;;;;;7.16;87.73;98035.56;6155546;23;20001;-93
2023/10/23 14:58:19;;;;;;;17.65;10.60;;;;;;;6.97;87.48;98006.00;6105171;23;20009;-92
2023/10/23 15:14:58;;;;;;;23.17;11.25;;;;;;;7.11;85.81;97984.06;6209739;23;20008;-91
2023/10/23 15:17:43;;;;;;;20.33;11.40;;;;;;;6.84;86.10;97966.22;6186049;23;20076;-92
2023/10/23 15:20:13;;;;;;;15.13;9.55;;;;;;;7.26;85.81;98035.22;6088778;23;20073;-89
2023/10/23 15:23:23;;;;;;;14.77;8.30;;;;;;;7.02;85.98;98016.72;6114297;23;20021;-91
2023/10/23 15:26:20;;;;;;;21.58;10.50;;;;;;;6.80;86.34;97997.88;6170437;23;20017;-94
2023/10/23 15:28:53;;;;;;;20.30;10.07;;;;;;;6.65;86.44;97965.75;6212290;23;20446;-93
2023/10/23 15:31:26;;;;;;;15.73;9.68;;;;;;;6.81;86.57;98013.81;6168268;23;20028;-93
2023/10/23 15:33:54;;;;;;;;;;;;;;;7.00;86.32;98043.38;6190268;23;20040;-90
2023/10/23 15:36:25;;;;;;;14.35;7.45;;;;;;;6.79;86.21;98021.50;6160695;23;19920;-92
2023/10/23 15:38:52;;;;;;;14.80;8.85;;;;;;;6.77;86.29;98025.66;6137373;23;20001;-90
2023/10/23 15:44:26;;;;;;;14.52;8.80;;;;;;;6.38;85.74;97972.31;6198576;23;20017;-93
2023/10/23 15:49:45;;;;;;;13.02;7.25;;;;;;;6.35;85.01;97982.66;6221559;23;20032;-92
2023/10/23 15:52:22;;;;;;;12.03;7.13;;;;;;;6.45;85.40;98022.28;6239649;23;20015;-92
2023/10/23 16:00:49;;;;;;;11.32;7.35;;;;;;;6.23;85.59;98023.22;6205955;23;20013;-92
2023/10/23 16:03:47;;;;;;;10.43;6.80;;;;;;;5.91;85.85;97977.47;6113735;23;20032;-94
2023/10/23 16:06:16;;;;;;;11.38;7.32;;;;;;;5.84;86.43;97972.50;6159264;23;20019;-93
2023/10/23 16:09:08;;;;;;;17.25;7.22;;;;;;;6.23;86.68;98038.69;6112111;23;20052;-94
2023/10/23 16:11:59;;;;;;;10.70;5.35;;;;;;;6.17;86.42;98029.91;6171249;23;20013;-89
2023/10/23 16:14:28;;;;;;;7.53;4.45;;;;;;;6.36;86.15;98067.63;6132282;23;20032;-90
2023/10/23 16:17:14;;;;;;;10.48;5.00;;;;;;;6.03;85.62;98024.59;6142540;23;20001;-90
2023/10/23 16:40:09;;;;;;;5.97;2.88;;;;;;;5.60;82.98;98000.78;6199086;23;20081;-91
2023/10/23 16:42:50;;;;;;;2.85;2.05;;;;;;;5.98;83.21;98070.84;6161286;23;20001;-91
2023/10/23 16:45:34;;;;;;;4.43;2.15;;;;;;;5.73;83.18;98056.03;6168952;23;20005;-91
2023/10/23 16:48:29;;;;;;;4.05;2.47;;;;;;;5.60;83.61;98030.63;6185192;23;20032;-93
2023/10/23 16:54:24;;;;;;;4.45;2.50;;;;;;;5.26;84.03;98001.41;6206767;23;20005;-92
2023/10/23 17:12:18;;;;;;;8.23;2.85;;;;;;;5.60;83.43;98043.38;6210092;23;20025;-93
2023/10/23 17:15:08;;;;;;;4.72;1.95;;;;;;;5.37;82.13;98029.06;6165863;23;20008;-92
2023/10/23 17:18:25;;;;;;;;;;;;;;;5.84;82.16;98111.59;6192329;23;20001;-92
2023/10/23 17:21:16;;;;;;;7.88;2.22;;;;;;;5.52;82.16;98082.06;6190585;23;19919;-93
2023/10/23 17:24:11;;;;;;;3.10;1.80;;;;;;;5.58;82.12;98102.50;6079778;23;19997;-91
2023/10/23 17:27:31;;;;;;;1.95;1.48;;;;;;;5.32;82.14;98069.81;6152430;23;20009;-92
2023/10/23 17:51:15;;;;;;;4.78;2.60;;;;;;;5.89;82.82;98138.59;6176499;23;20021;-93
2023/10/23 17:56:42;;;;;;;5.23;2.80;;;;;;;5.48;81.68;98084.59;6238695;23;20004;-92
2023/10/23 17:59:19;;;;;;;3.92;2.22;;;;;;;5.65;82.32;98159.78;6213294;23;20013;-94
2023/10/23 18:01:50;;;;;;;5.30;2.33;;;;;;;5.52;82.84;98128.13;6215515;23;20054;-91
2023/10/23 18:04:49;;;;;;;2.83;1.90;;;;;;;5.11;82.15;98051.34;6163075;23;20040;-92
2023/10/23 18:10:36;;;;;;;3.55;2.10;;;;;;;5.60;81.36;98140.97;6236783;22;20016;-92
2023/10/23 18:13:57;;;;;;;5.30;2.00;;;;;;;5.72;81.29;98170.19;6194392;23;20046;-92
2023/10/23 18:16:49;;;;;;;3.03;1.95;;;;;;;5.19;80.82;98088.53;6166884;23;20114;-91
2023/10/23 18:20:27;;;;;;;5.32;2.35;;;;;;;5.73;80.98;98177.22;6175177;23;20028;-93
2023/10/23 18:23:39;;;;;;;;;;;;;;;5.75;81.51;98175.00;6170098;23;20001;-90
2023/10/23 18:35:32;;;;;;;3.60;1.73;;;;;;;5.18;80.79;98141.13;6236120;23;20023;-90
2023/10/23 18:41:30;;;;;;;2.28;1.73;;;;;;;5.53;80.68;98208.31;6208100;23;20083;-88
2023/10/23 18:44:12;;;;;;;1.95;1.52;;;;;;;4.90;81.11;98107.91;6152424;23;20025;-92
2023/10/23 18:46:47;;;;;;;1.92;1.40;;;;;;;4.95;81.36;98139.47;6132447;23;20029;-89
2023/10/23 18:49:39;;;;;;;2.67;1.58;;;;;;;4.81;81.06;98130.59;6132575;23;20044;-92
2023/10/23 18:52:09;;;;;;;2.53;1.25;;;;;;;5.13;80.52;98187.28;6109752;23;20053;-90
2023/10/23 18:54:40;;;;;;;2.28;1.23;;;;;;;4.82;80.75;98180.91;6151603;23;20005;-90
2023/10/23 18:57:11;;;;;;;2.10;1.45;;;;;;;4.67;81.15;98169.31;6124294;23;20017;-93
2023/10/23 19:00:10;;;;;;;1.08;1.02;;;;;;;4.35;81.55;98118.81;6130492;23;20002;-95
2023/10/23 19:03:15;;;;;;;5.65;1.17;;;;;;;4.83;82.47;98190.63;6179232;23;20068;-94
2023/10/23 19:06:08;;;;;;;3.17;1.50;;;;;;;4.42;82.53;98116.50;6108000;23;20048;-94
2023/10/23 19:11:59;;;;;;;1.85;1.33;;;;;;;4.50;81.62;98142.03;6238827;23;20004;-94
2023/10/23 19:14:52;;;;;;;3.42;1.55;;;;;;;4.64;82.25;98180.75;6164702;23;20032;-95
2023/10/23 19:17:27;;;;;;;2.35;1.30;;;;;;;4.36;81.50;98142.06;6216435;23;20016;-93
2023/10/23 19:19:59;;;;;;;2.55;1.60;;;;;;;4.60;81.87;98189.75;6116094;23;20021;-91
2023/10/23 19:22:48;;;;;;;1.25;1.05;;;;;;;4.43;81.67;98183.03;6126732;23;20081;-94
2023/10/23 19:25:17;;;;;;;1.73;1.23;;;;;;;4.65;81.89;98200.50;6072693;23;19998;-93
2023/10/23 19:27:51;;;;;;;4.22;1.58;;;;;;;4.67;81.66;98215.31;6096303;23;20014;-93
2023/10/23 19:30:31;;;;;;;2.15;1.30;;;;;;;4.28;81.32;98177.94;6123090;23;20073;-92
2023/10/23 19:33:23;;;;;;;2.92;1.10;;;;;;;4.29;81.87;98179.53;6100257;23;20058;-93
2023/10/23 19:36:06;;;;;;;2.55;1.42;;;;;;;4.42;82.81;98222.03;5985408;23;20026;-93
2023/10/23 19:38:42;;;;;;;3.03;1.23;;;;;;;4.72;83.21;98273.97;6076332;23;20034;-94
2023/10/23 19:41:14;;;;;;;3.38;1.05;;;;;;;4.50;82.16;98234.03;6098968;23;20030;-95
2023/10/23 19:43:48;;;;;;;1.67;1.10;;;;;;;4.42;81.83;98227.44;6098021;23;20075;-93
2023/10/23 19:46:19;;;;;;;2.45;1.00;;;;;;;4.00;82.04;98166.25;6072072;23;20026;-90
2023/10/23 19:48:52;;;;;;;1.65;1.00;;;;;;;4.18;82.27;98205.97;6100547;23;20032;-94
2023/10/23 19:51:23;;;;;;;2.78;1.10;;;;;;;3.85;82.96;98174.66;6119036;23;20018;-91
2023/10/23 19:53:53;;;;;;;1.27;1.10;;;;;;;4.06;82.82;98202.94;6117852;23;19998;-92
2023/10/23 19:56:26;;;;;;;1.83;1.20;;;;;;;4.22;82.72;98247.53;6144302;23;20017;-91
2023/10/23 19:58:53;;;;;;;1.38;1.15;;;;;;;4.42;82.90;98286.97;6071515;23;20172;-94
2023/10/23 20:01:35;;;;;;;1.45;1.10;;;;;;;4.07;83.11;98236.19;6120739;23;20014;-93
2023/10/23 20:04:04;;;;;;;2.65;1.48;;;;;;;3.79;83.53;98184.75;6096629;23;20021;-92
2023/10/23 20:06:33;;;;;;;1.50;0.90;;;;;;;3.72;82.77;98179.72;6053844;23;20022;-93
2023/10/23 20:09:23;;;;;;;2.00;1.30;;;;;;;3.94;82.36;98224.22;6074303;23;20028;-93
2023/10/23 20:11:52;;;;;;;1.50;1.13;;;;;;;3.77;81.91;98200.44;6088160;23;20034;-92
2023/10/23 20:14:38;;;;;;;1.20;1.10;;;;;;;4.26;81.23;98287.53;6184793;23;20012;-92
2023/10/23 20:17:36;;;;;;;3.67;1.30;;;;;;;3.88;82.00;98222.72;6199547;23;20020;-92
2023/10/23 20:20:35;;;;;;;1.20;1.10;;;;;;;4.30;82.14;98292.03;6174041;23;20528;-91
2023/10/23 20:23:02;;;;;;;2.90;1.30;;;;;;;4.63;81.80;98324.47;6091280;23;20013;-91
2023/10/23 20:25:35;;;;;;;1.73;1.23;;;;;;;4.16;80.97;98235.19;6120705;23;20051;-92
2023/10/23 20:28:05;;;;;;;2.65;1.30;;;;;;;4.15;80.46;98271.47;6106579;23;19997;-91
2023/10/23 20:31:18;;;;;;;4.25;1.20;;;;;;;3.92;81.11;98235.34;6121729;23;20057;-93
2023/10/23 20:33:49;;;;;;;3.22;1.20;;;;;;;4.24;81.00;98304.06;6100328;23;20021;-90
2023/10/23 20:36:20;;;;;;;1.90;1.10;;;;;;;4.17;81.16;98295.50;6118490;23;20094;-92
2023/10/23 20:38:47;;;;;;;6.00;1.40;;;;;;;3.54;80.84;98215.66;6092402;23;20056;-91
2023/10/23 20:41:17;;;;;;;1.40;1.30;;;;;;;3.88;80.46;98293.81;6092426;23;20025;-89
2023/10/23 20:43:44;;;;;;;2.65;1.35;;;;;;;4.00;80.66;98318.47;6086873;23;20051;-89
2023/10/23 20:46:10;;;;;;;1.05;1.00;;;;;;;4.08;80.57;98333.25;6083779;23;20034;-90
2023/10/23 20:48:37;;;;;;;1.45;1.17;;;;;;;3.76;80.24;98286.13;6106245;23;20044;-90
2023/10/23 20:51:07;;;;;;;3.40;1.45;;;;;;;3.71;80.35;98304.34;6115161;23;20019;-91
2023/10/23 20:53:33;;;;;;;1.50;1.10;;;;;;;3.36;80.68;98257.81;6151845;23;20462;-92
2023/10/23 20:56:03;;;;;;;3.67;1.60;;;;;;;3.91;80.97;98351.91;6175157;23;20035;-91
2023/10/23 20:58:30;;;;;;;2.85;1.40;;;;;;;3.74;80.99;98312.66;6148420;23;20017;-93
2023/10/23 21:01:02;;;;;;;2.65;1.40;;;;;;;3.92;81.18;98321.06;6173120;23;20021;-90
2023/10/23 21:03:29;;;;;;;3.40;1.45;;;;;;;3.89;80.68;98327.06;6173318;23;20013;-90
2023/10/23 21:05:59;;;;;;;2.53;1.30;;;;;;;3.89;80.33;98330.56;6154090;23;20012;-90
2023/10/23 21:08:25;;;;;;;1.95;1.30;;;;;;;4.04;81.13;98340.34;6174538;23;20020;-92
2023/10/23 21:10:53;;;;;;;1.88;1.20;;;;;;;3.74;80.22;98309.97;6149412;23;20024;-90
2023/10/23 21:13:19;;;;;;;1.42;1.20;;;;;;;3.79;79.75;98355.03;6149251;23;20019;-90
2023/10/23 21:15:45;;;;;;;1.83;1.23;;;;;;;3.37;80.68;98293.72;6145792;23;20086;-91
2023/10/23 21:18:11;;;;;;;1.92;1.27;;;;;;;3.93;80.44;98363.22;6171717;23;20017;-89
2023/10/23 21:20:37;;;;;;;1.20;1.10;;;;;;;3.71;79.94;98345.69;6148417;23;20047;-90
2023/10/23 21:23:05;;;;;;;2.88;1.30;;;;;;;3.43;80.41;98336.59;6148176;23;20545;-90
2023/10/23 21:25:31;;;;;;;2.25;1.40;;;;;;;3.57;81.22;98352.09;6149900;23;20016;-91
2023/10/23 21:27:58;;;;;;;2.53;1.25;;;;;;;3.57;80.83;98357.50;6151591;23;20047;-89
2023/10/23 21:30:24;;;;;;;1.23;1.13;;;;;;;3.58;80.61;98391.53;6150913;23;20021;-92
2023/10/23 21:32:51;;;;;;;1.83;1.15;;;;;;;3.24;81.21;98366.25;6154897;23;20017;-89
2023/10/23 21:35:16;;;;;;;3.28;1.75;;;;;;;3.37;81.43;98390.97;6154159;23;20087;-92
2023/10/23 21:37:43;;;;;;;1.58;1.30;;;;;;;3.47;81.41;98398.94;6182658;23;20016;-91
2023/10/23 21:40:11;;;;;;;1.80;1.33;;;;;;;3.43;81.97;98377.13;6153087;23;20099;-93
2023/10/23 21:42:39;;;;;;;1.65;1.48;;;;;;;3.49;81.69;98424.59;6175667;23;20020;-92
2023/10/23 21:45:05;;;;;;;1.25;1.02;;;;;;;3.32;81.94;98391.03;6147633;23;20016;-88
2023/10/23 21:47:33;;;;;;;2.17;1.40;;;;;;;3.17;82.10;98384.69;6152525;23;20009;-92
2023/10/23 21:49:58;;;;;;;;;;;;;;;3.50;82.27;98426.19;6149811;23;20063;-91
2023/10/23 21:52:25;;;;;;;1.25;1.15;;;;;;;3.59;81.69;98439.09;6173518;23;19915;-91
2023/10/23 21:54:51;;;;;;;1.70;1.37;;;;;;;3.54;81.68;98412.91;6148708;23;20631;-92
2023/10/23 21:57:19;;;;;;;1.75;1.40;;;;;;;3.71;82.40;98431.38;6152788;23;20055;-93
2023/10/23 21:59:46;;;;;;;3.63;1.70;;;;;;;3.59;81.82;98412.06;6152987;23;20088;-91
2023/10/23 22:02:14;;;;;;;2.45;1.40;;;;;;;3.53;80.27;98401.31;6146552;23;20031;-92
2023/10/23 22:04:41;;;;;;;1.40;1.30;;;;;;;3.61;80.32;98436.88;6150383;23;20043;-90
2023/10/23 22:07:08;;;;;;;2.75;1.27;;;;;;;3.14;80.24;98377.19;6151964;23;20021;-92
2023/10/23 22:09:34;;;;;;;2.58;1.70;;;;;;;3.17;81.37;98357.69;6150111;23;20024;-93
2023/10/23 22:12:01;;;;;;;2.33;1.53;;;;;;;3.36;81.11;98390.16;6153477;23;20529;-92